sensor_id;sensor_type;location;lat;lon;timestamp;pressure;altitude;pressure_sealevel;temperature
42119;BMP280;27783;42.782;23.274;2022-11-20T00:01:29;94793.53;;;17.56
42119;BMP280;27783;42.782;23.274;2022-11-20T00:03:57;94816.09;;;18.25
42119;BMP280;27783;42.782;23.274;2022-11-20T00:06:23;94808.53;;;18.24
42119;BMP280;27783;42.782;23.274;2022-11-20T00:08:49;94803.81;;;18.10
42119;BMP280;27783;42.782;23.274;2022-11-20T00:11:17;94810.72;;;17.73
42119;BMP280;27783;42.782;23.274;2022-11-20T00:13:44;94801.41;;;17.77
42119;BMP280;27783;42.782;23.274;2022-11-20T00:16:11;94806.41;;;17.67
42119;BMP280;27783;42.782;23.274;2022-11-20T00:18:37;94792.34;;;17.75
42119;BMP280;27783;42.782;23.274;2022-11-20T00:21:10;94799.81;;;18.15
42119;BMP280;27783;42.782;23.274;2022-11-20T00:23:36;94788.56;;;18.02
42119;BMP280;27783;42.782;23.274;2022-11-20T00:26:06;94804.25;;;17.83
42119;BMP280;27783;42.782;23.274;2022-11-20T00:28:31;94800.94;;;17.70
42119;BMP280;27783;42.782;23.274;2022-11-20T00:31:06;94797.81;;;17.63
42119;BMP280;27783;42.782;23.274;2022-11-20T00:33:32;94809.09;;;17.75
42119;BMP280;27783;42.782;23.274;2022-11-20T00:36:02;94788.41;;;17.97
42119;BMP280;27783;42.782;23.274;2022-11-20T00:38:29;94801.56;;;17.74
42119;BMP280;27783;42.782;23.274;2022-11-20T00:40:56;94806.56;;;17.63
42119;BMP280;27783;42.782;23.274;2022-11-20T00:43:22;94793.31;;;17.81
42119;BMP280;27783;42.782;23.274;2022-11-20T00:45:48;94791.47;;;17.60
42119;BMP280;27783;42.782;23.274;2022-11-20T00:48:13;94805.34;;;17.47
42119;BMP280;27783;42.782;23.274;2022-11-20T00:50:39;94811.94;;;17.98
42119;BMP280;27783;42.782;23.274;2022-11-20T00:53:04;94794.69;;;17.55
42119;BMP280;27783;42.782;23.274;2022-11-20T00:55:29;94797.97;;;17.59
42119;BMP280;27783;42.782;23.274;2022-11-20T00:57:55;94803.28;;;17.51
42119;BMP280;27783;42.782;23.274;2022-11-20T01:00:20;94813.34;;;17.47
42119;BMP280;27783;42.782;23.274;2022-11-20T01:02:45;94799.47;;;17.60
42119;BMP280;27783;42.782;23.274;2022-11-20T01:05:11;94795.91;;;17.72
42119;BMP280;27783;42.782;23.274;2022-11-20T01:07:36;94799.75;;;17.62
42119;BMP280;27783;42.782;23.274;2022-11-20T01:10:02;94788.50;;;17.67
42119;BMP280;27783;42.782;23.274;2022-11-20T01:12:28;94792.97;;;17.79
42119;BMP280;27783;42.782;23.274;2022-11-20T01:14:53;94793.88;;;18.11
42119;BMP280;27783;42.782;23.274;2022-11-20T01:17:22;94788.50;;;17.76
42119;BMP280;27783;42.782;23.274;2022-11-20T01:19:50;94790.72;;;17.60
42119;BMP280;27783;42.782;23.274;2022-11-20T01:22:16;94794.56;;;17.50
42119;BMP280;27783;42.782;23.274;2022-11-20T01:24:41;94782.63;;;17.89
42119;BMP280;27783;42.782;23.274;2022-11-20T01:27:07;94789.09;;;17.62
42119;BMP280;27783;42.782;23.274;2022-11-20T01:29:32;94778.13;;;17.69
42119;BMP280;27783;42.782;23.274;2022-11-20T01:31:57;94783.00;;;17.62
42119;BMP280;27783;42.782;23.274;2022-11-20T01:34:23;94770.88;;;17.78
42119;BMP280;27783;42.782;23.274;2022-11-20T01:36:49;94769.84;;;17.67
42119;BMP280;27783;42.782;23.274;2022-11-20T01:39:23;94769.22;;;17.46
42119;BMP280;27783;42.782;23.274;2022-11-20T01:41:49;94763.00;;;17.31
42119;BMP280;27783;42.782;23.274;2022-11-20T01:44:56;94764.72;;;17.17
42119;BMP280;27783;42.782;23.274;2022-11-20T01:47:32;94761.31;;;17.16
42119;BMP280;27783;42.782;23.274;2022-11-20T01:50:10;94756.00;;;16.86
42119;BMP280;27783;42.782;23.274;2022-11-20T01:52:40;94760.22;;;16.96
42119;BMP280;27783;42.782;23.274;2022-11-20T01:55:11;94761.91;;;17.20
42119;BMP280;27783;42.782;23.274;2022-11-20T01:57:38;94773.78;;;17.36
42119;BMP280;27783;42.782;23.274;2022-11-20T02:00:10;94760.38;;;17.57
42119;BMP280;27783;42.782;23.274;2022-11-20T02:02:37;94765.16;;;17.80
42119;BMP280;27783;42.782;23.274;2022-11-20T02:05:20;94754.63;;;17.85
42119;BMP280;27783;42.782;23.274;2022-11-20T02:07:48;94749.41;;;17.73
42119;BMP280;27783;42.782;23.274;2022-11-20T02:10:14;94750.88;;;17.48
42119;BMP280;27783;42.782;23.274;2022-11-20T02:12:39;94757.38;;;17.47
42119;BMP280;27783;42.782;23.274;2022-11-20T02:15:23;94763.91;;;17.46
42119;BMP280;27783;42.782;23.274;2022-11-20T02:17:49;94748.25;;;17.83
42119;BMP280;27783;42.782;23.274;2022-11-20T02:20:14;94751.19;;;17.76
42119;BMP280;27783;42.782;23.274;2022-11-20T02:22:51;94747.66;;;17.70
42119;BMP280;27783;42.782;23.274;2022-11-20T02:25:18;94753.91;;;17.93
42119;BMP280;27783;42.782;23.274;2022-11-20T02:27:44;94762.34;;;18.01
42119;BMP280;27783;42.782;23.274;2022-11-20T02:30:10;94753.25;;;17.72
42119;BMP280;27783;42.782;23.274;2022-11-20T02:32:36;94767.63;;;17.66
42119;BMP280;27783;42.782;23.274;2022-11-20T02:37:44;94775.09;;;17.97
42119;BMP280;27783;42.782;23.274;2022-11-20T02:40:11;94781.28;;;17.85
42119;BMP280;27783;42.782;23.274;2022-11-20T02:42:36;94795.06;;;17.84
42119;BMP280;27783;42.782;23.274;2022-11-20T02:45:03;94795.16;;;17.63
42119;BMP280;27783;42.782;23.274;2022-11-20T02:47:29;94790.91;;;17.83
42119;BMP280;27783;42.782;23.274;2022-11-20T02:49:54;94795.34;;;17.77
42119;BMP280;27783;42.782;23.274;2022-11-20T02:52:20;94794.13;;;17.60
42119;BMP280;27783;42.782;23.274;2022-11-20T02:54:45;94787.06;;;17.84
42119;BMP280;27783;42.782;23.274;2022-11-20T02:57:10;94782.91;;;17.83
42119;BMP280;27783;42.782;23.274;2022-11-20T02:59:36;94797.97;;;17.68
42119;BMP280;27783;42.782;23.274;2022-11-20T03:02:01;94799.66;;;18.18
42119;BMP280;27783;42.782;23.274;2022-11-20T03:04:26;94813.91;;;18.06
42119;BMP280;27783;42.782;23.274;2022-11-20T03:06:52;94811.97;;;18.07
42119;BMP280;27783;42.782;23.274;2022-11-20T03:09:17;94823.16;;;17.76
42119;BMP280;27783;42.782;23.274;2022-11-20T03:11:43;94823.44;;;17.69
42119;BMP280;27783;42.782;23.274;2022-11-20T03:14:08;94830.09;;;17.65
42119;BMP280;27783;42.782;23.274;2022-11-20T03:16:34;94830.25;;;17.61
42119;BMP280;27783;42.782;23.274;2022-11-20T03:19:00;94820.44;;;17.41
42119;BMP280;27783;42.782;23.274;2022-11-20T03:21:25;94826.25;;;17.57
42119;BMP280;27783;42.782;23.274;2022-11-20T03:23:53;94823.25;;;17.46
42119;BMP280;27783;42.782;23.274;2022-11-20T03:26:24;94818.81;;;17.52
42119;BMP280;27783;42.782;23.274;2022-11-20T03:28:51;94839.72;;;17.53
42119;BMP280;27783;42.782;23.274;2022-11-20T03:31:19;94840.38;;;17.36
42119;BMP280;27783;42.782;23.274;2022-11-20T03:33:45;94840.53;;;17.33
42119;BMP280;27783;42.782;23.274;2022-11-20T03:36:12;94855.63;;;17.36
42119;BMP280;27783;42.782;23.274;2022-11-20T03:38:38;94844.69;;;17.43
42119;BMP280;27783;42.782;23.274;2022-11-20T03:41:07;94842.16;;;17.31
42119;BMP280;27783;42.782;23.274;2022-11-20T03:43:33;94845.03;;;17.45
42119;BMP280;27783;42.782;23.274;2022-11-20T03:45:59;94847.00;;;17.23
42119;BMP280;27783;42.782;23.274;2022-11-20T03:48:25;94848.63;;;17.21
42119;BMP280;27783;42.782;23.274;2022-11-20T03:50:51;94837.22;;;17.12
42119;BMP280;27783;42.782;23.274;2022-11-20T03:53:17;94835.09;;;17.07
42119;BMP280;27783;42.782;23.274;2022-11-20T03:55:43;94835.69;;;17.02
42119;BMP280;27783;42.782;23.274;2022-11-20T03:58:09;94834.78;;;16.75
42119;BMP280;27783;42.782;23.274;2022-11-20T04:00:34;94835.63;;;16.72
42119;BMP280;27783;42.782;23.274;2022-11-20T04:03:02;94839.09;;;16.82
42119;BMP280;27783;42.782;23.274;2022-11-20T04:05:28;94829.75;;;16.98
42119;BMP280;27783;42.782;23.274;2022-11-20T04:07:53;94825.47;;;17.01
42119;BMP280;27783;42.782;23.274;2022-11-20T04:10:19;94829.13;;;16.94
42119;BMP280;27783;42.782;23.274;2022-11-20T04:12:44;94831.25;;;16.78
42119;BMP280;27783;42.782;23.274;2022-11-20T04:15:10;94816.38;;;16.89
42119;BMP280;27783;42.782;23.274;2022-11-20T04:17:35;94806.84;;;16.80
42119;BMP280;27783;42.782;23.274;2022-11-20T04:20:02;94807.16;;;16.82
42119;BMP280;27783;42.782;23.274;2022-11-20T04:22:27;94815.03;;;16.64
42119;BMP280;27783;42.782;23.274;2022-11-20T04:24:53;94815.78;;;17.24
42119;BMP280;27783;42.782;23.274;2022-11-20T04:27:18;94804.75;;;17.51
42119;BMP280;27783;42.782;23.274;2022-11-20T04:29:44;94801.97;;;17.64
42119;BMP280;27783;42.782;23.274;2022-11-20T04:32:09;94810.13;;;17.60
42119;BMP280;27783;42.782;23.274;2022-11-20T04:34:35;94814.31;;;17.79
42119;BMP280;27783;42.782;23.274;2022-11-20T04:37:00;94809.09;;;17.67
42119;BMP280;27783;42.782;23.274;2022-11-20T04:39:26;94817.22;;;17.72
42119;BMP280;27783;42.782;23.274;2022-11-20T04:41:51;94815.31;;;17.72
42119;BMP280;27783;42.782;23.274;2022-11-20T04:44:36;94822.03;;;17.85
42119;BMP280;27783;42.782;23.274;2022-11-20T04:47:02;94829.38;;;17.64
42119;BMP280;27783;42.782;23.274;2022-11-20T04:49:27;94816.06;;;17.73
42119;BMP280;27783;42.782;23.274;2022-11-20T04:51:53;94811.94;;;17.98
42119;BMP280;27783;42.782;23.274;2022-11-20T04:54:18;94808.66;;;17.77
42119;BMP280;27783;42.782;23.274;2022-11-20T04:56:47;94812.78;;;17.78
42119;BMP280;27783;42.782;23.274;2022-11-20T04:59:13;94795.31;;;17.68
42119;BMP280;27783;42.782;23.274;2022-11-20T05:01:38;94795.00;;;17.57
42119;BMP280;27783;42.782;23.274;2022-11-20T05:04:04;94804.78;;;17.69
42119;BMP280;27783;42.782;23.274;2022-11-20T05:06:29;94783.75;;;17.45
42119;BMP280;27783;42.782;23.274;2022-11-20T05:08:55;94790.53;;;17.37
42119;BMP280;27783;42.782;23.274;2022-11-20T05:11:21;94784.66;;;17.59
42119;BMP280;27783;42.782;23.274;2022-11-20T05:13:47;94788.34;;;17.53
42119;BMP280;27783;42.782;23.274;2022-11-20T05:16:16;94774.63;;;17.81
42119;BMP280;27783;42.782;23.274;2022-11-20T05:18:42;94779.50;;;18.08
42119;BMP280;27783;42.782;23.274;2022-11-20T05:21:08;94779.06;;;18.10
42119;BMP280;27783;42.782;23.274;2022-11-20T05:23:35;94799.47;;;17.78
42119;BMP280;27783;42.782;23.274;2022-11-20T05:26:02;94789.81;;;17.63
42119;BMP280;27783;42.782;23.274;2022-11-20T05:28:29;94801.97;;;17.64
42119;BMP280;27783;42.782;23.274;2022-11-20T05:31:03;94792.78;;;17.56
42119;BMP280;27783;42.782;23.274;2022-11-20T05:33:29;94790.09;;;17.47
42119;BMP280;27783;42.782;23.274;2022-11-20T05:35:58;94792.03;;;17.47
42119;BMP280;27783;42.782;23.274;2022-11-20T05:38:24;94787.50;;;17.82
42119;BMP280;27783;42.782;23.274;2022-11-20T05:40:50;94789.44;;;17.90
42119;BMP280;27783;42.782;23.274;2022-11-20T05:43:18;94805.44;;;17.99
42119;BMP280;27783;42.782;23.274;2022-11-20T05:45:54;94796.97;;;17.74
42119;BMP280;27783;42.782;23.274;2022-11-20T05:48:20;94802.19;;;17.86
42119;BMP280;27783;42.782;23.274;2022-11-20T05:50:46;94799.38;;;17.90
42119;BMP280;27783;42.782;23.274;2022-11-20T05:53:12;94805.16;;;18.06
42119;BMP280;27783;42.782;23.274;2022-11-20T05:55:37;94798.91;;;17.83
42119;BMP280;27783;42.782;23.274;2022-11-20T05:58:03;94814.50;;;17.46
42119;BMP280;27783;42.782;23.274;2022-11-20T06:00:28;94818.00;;;17.25
42119;BMP280;27783;42.782;23.274;2022-11-20T06:02:53;94809.09;;;17.19
42119;BMP280;27783;42.782;23.274;2022-11-20T06:05:19;94803.16;;;17.16
42119;BMP280;27783;42.782;23.274;2022-11-20T06:07:44;94805.88;;;17.24
42119;BMP280;27783;42.782;23.274;2022-11-20T06:10:10;94811.97;;;17.42
42119;BMP280;27783;42.782;23.274;2022-11-20T06:12:36;94818.50;;;17.41
42119;BMP280;27783;42.782;23.274;2022-11-20T06:15:01;94816.75;;;17.47
42119;BMP280;27783;42.782;23.274;2022-11-20T06:17:26;94811.56;;;17.52
42119;BMP280;27783;42.782;23.274;2022-11-20T06:19:52;94798.72;;;17.68
42119;BMP280;27783;42.782;23.274;2022-11-20T06:22:17;94812.91;;;17.57
42119;BMP280;27783;42.782;23.274;2022-11-20T06:24:42;94812.69;;;17.25
42119;BMP280;27783;42.782;23.274;2022-11-20T06:27:08;94808.69;;;17.21
42119;BMP280;27783;42.782;23.274;2022-11-20T06:29:33;94801.97;;;17.08
42119;BMP280;27783;42.782;23.274;2022-11-20T06:32:01;94805.25;;;17.12
42119;BMP280;27783;42.782;23.274;2022-11-20T06:34:27;94803.75;;;17.11
42119;BMP280;27783;42.782;23.274;2022-11-20T06:36:53;94816.34;;;17.19
42119;BMP280;27783;42.782;23.274;2022-11-20T06:39:19;94811.47;;;17.18
42119;BMP280;27783;42.782;23.274;2022-11-20T06:41:44;94811.47;;;17.18
42119;BMP280;27783;42.782;23.274;2022-11-20T06:44:10;94815.59;;;17.10
42119;BMP280;27783;42.782;23.274;2022-11-20T06:46:37;94816.47;;;17.07
42119;BMP280;27783;42.782;23.274;2022-11-20T06:49:02;94818.09;;;17.04
42119;BMP280;27783;42.782;23.274;2022-11-20T06:51:28;94817.34;;;17.04
42119;BMP280;27783;42.782;23.274;2022-11-20T06:53:53;94815.59;;;17.10
42119;BMP280;27783;42.782;23.274;2022-11-20T06:56:18;94824.44;;;17.07
42119;BMP280;27783;42.782;23.274;2022-11-20T06:58:44;94819.72;;;17.02
42119;BMP280;27783;42.782;23.274;2022-11-20T07:01:13;94809.47;;;16.92
42119;BMP280;27783;42.782;23.274;2022-11-20T07:03:39;94826.38;;;17.06
42119;BMP280;27783;42.782;23.274;2022-11-20T07:06:05;94838.19;;;17.05
42119;BMP280;27783;42.782;23.274;2022-11-20T07:08:32;94837.41;;;16.96
42119;BMP280;27783;42.782;23.274;2022-11-20T07:10:59;94844.97;;;16.98
42119;BMP280;27783;42.782;23.274;2022-11-20T07:13:27;94858.97;;;16.89
42119;BMP280;27783;42.782;23.274;2022-11-20T07:15:54;94848.94;;;16.93
42119;BMP280;27783;42.782;23.274;2022-11-20T07:18:20;94855.69;;;16.85
42119;BMP280;27783;42.782;23.274;2022-11-20T07:20:46;94861.56;;;16.81
42119;BMP280;27783;42.782;23.274;2022-11-20T07:23:12;94859.72;;;16.90
42119;BMP280;27783;42.782;23.274;2022-11-20T07:25:38;94857.16;;;17.07
42119;BMP280;27783;42.782;23.274;2022-11-20T07:28:07;94855.63;;;16.98
42119;BMP280;27783;42.782;23.274;2022-11-20T07:30:34;94852.78;;;16.92
42119;BMP280;27783;42.782;23.274;2022-11-20T07:33:00;94849.69;;;16.94
42119;BMP280;27783;42.782;23.274;2022-11-20T07:35:26;94855.13;;;16.90
42119;BMP280;27783;42.782;23.274;2022-11-20T07:37:51;94861.84;;;17.03
42119;BMP280;27783;42.782;23.274;2022-11-20T07:40:18;94856.38;;;16.98
42119;BMP280;27783;42.782;23.274;2022-11-20T07:42:49;94856.63;;;16.91
42119;BMP280;27783;42.782;23.274;2022-11-20T07:45:17;94869.06;;;16.94
42119;BMP280;27783;42.782;23.274;2022-11-20T07:47:42;94862.50;;;17.16
42119;BMP280;27783;42.782;23.274;2022-11-20T07:50:09;94858.81;;;17.14
42119;BMP280;27783;42.782;23.274;2022-11-20T07:52:36;94858.31;;;17.06
42119;BMP280;27783;42.782;23.274;2022-11-20T07:55:02;94865.22;;;16.95
42119;BMP280;27783;42.782;23.274;2022-11-20T07:57:28;94866.34;;;16.85
42119;BMP280;27783;42.782;23.274;2022-11-20T07:59:54;94868.31;;;16.73
42119;BMP280;27783;42.782;23.274;2022-11-20T08:02:19;94874.56;;;16.79
42119;BMP280;27783;42.782;23.274;2022-11-20T08:04:44;94871.97;;;16.87
42119;BMP280;27783;42.782;23.274;2022-11-20T08:07:11;94869.63;;;16.89
42119;BMP280;27783;42.782;23.274;2022-11-20T08:09:37;94871.22;;;16.87
42119;BMP280;27783;42.782;23.274;2022-11-20T08:12:04;94873.38;;;16.80
42119;BMP280;27783;42.782;23.274;2022-11-20T08:14:48;94880.16;;;16.72
42119;BMP280;27783;42.782;23.274;2022-11-20T08:17:15;94859.16;;;16.74
42119;BMP280;27783;42.782;23.274;2022-11-20T08:19:41;94860.94;;;16.77
42119;BMP280;27783;42.782;23.274;2022-11-20T08:22:07;94862.94;;;16.64
42119;BMP280;27783;42.782;23.274;2022-11-20T08:24:32;94866.66;;;16.67
42119;BMP280;27783;42.782;23.274;2022-11-20T08:27:00;94863.31;;;16.75
42119;BMP280;27783;42.782;23.274;2022-11-20T08:29:26;94874.00;;;16.63
42119;BMP280;27783;42.782;23.274;2022-11-20T08:31:53;94867.09;;;16.65
42119;BMP280;27783;42.782;23.274;2022-11-20T08:34:18;94871.34;;;16.84
42119;BMP280;27783;42.782;23.274;2022-11-20T08:36:47;94883.25;;;16.91
42119;BMP280;27783;42.782;23.274;2022-11-20T08:39:13;94891.13;;;16.83
42119;BMP280;27783;42.782;23.274;2022-11-20T08:41:39;94886.44;;;16.86
42119;BMP280;27783;42.782;23.274;2022-11-20T08:44:07;94885.06;;;17.03
42119;BMP280;27783;42.782;23.274;2022-11-20T08:46:34;94889.34;;;16.80
42119;BMP280;27783;42.782;23.274;2022-11-20T08:49:10;94908.25;;;16.94
42119;BMP280;27783;42.782;23.274;2022-11-20T08:51:37;94905.41;;;16.88
42119;BMP280;27783;42.782;23.274;2022-11-20T08:54:04;94908.09;;;16.76
42119;BMP280;27783;42.782;23.274;2022-11-20T08:56:30;94927.28;;;16.51
42119;BMP280;27783;42.782;23.274;2022-11-20T08:58:56;94916.63;;;16.51
42119;BMP280;27783;42.782;23.274;2022-11-20T09:01:23;94910.00;;;16.34
42119;BMP280;27783;42.782;23.274;2022-11-20T09:03:49;94909.25;;;16.34
42119;BMP280;27783;42.782;23.274;2022-11-20T09:06:15;94911.38;;;16.05
42119;BMP280;27783;42.782;23.274;2022-11-20T09:08:42;94930.97;;;15.99
42119;BMP280;27783;42.782;23.274;2022-11-20T09:11:08;94931.53;;;15.70
42119;BMP280;27783;42.782;23.274;2022-11-20T09:13:35;94936.50;;;15.80
42119;BMP280;27783;42.782;23.274;2022-11-20T09:16:07;94930.94;;;15.87
42119;BMP280;27783;42.782;23.274;2022-11-20T09:18:37;94935.34;;;15.69
42119;BMP280;27783;42.782;23.274;2022-11-20T09:21:08;94927.88;;;15.64
42119;BMP280;27783;42.782;23.274;2022-11-20T09:23:36;94927.81;;;15.55
42119;BMP280;27783;42.782;23.274;2022-11-20T09:26:08;94919.50;;;15.41
42119;BMP280;27783;42.782;23.274;2022-11-20T09:28:34;94921.13;;;15.39
42119;BMP280;27783;42.782;23.274;2022-11-20T09:30:59;94913.03;;;15.54
42119;BMP280;27783;42.782;23.274;2022-11-20T09:33:25;94911.31;;;15.72
42119;BMP280;27783;42.782;23.274;2022-11-20T09:35:50;94916.19;;;15.86
42119;BMP280;27783;42.782;23.274;2022-11-20T09:38:16;94904.50;;;15.71
42119;BMP280;27783;42.782;23.274;2022-11-20T09:41:02;94892.69;;;15.84
42119;BMP280;27783;42.782;23.274;2022-11-20T09:49:15;94884.16;;;16.01
42119;BMP280;27783;42.782;23.274;2022-11-20T09:51:57;94869.00;;;15.90
42119;BMP280;27783;42.782;23.274;2022-11-20T09:54:36;94861.13;;;15.86
42119;BMP280;27783;42.782;23.274;2022-11-20T09:57:08;94865.63;;;16.10
42119;BMP280;27783;42.782;23.274;2022-11-20T10:00:05;94856.53;;;15.99
42119;BMP280;27783;42.782;23.274;2022-11-20T10:02:39;94863.59;;;16.14
42119;BMP280;27783;42.782;23.274;2022-11-20T10:05:11;94867.00;;;16.15
42119;BMP280;27783;42.782;23.274;2022-11-20T10:10:45;94860.91;;;16.26
42119;BMP280;27783;42.782;23.274;2022-11-20T10:15:53;94851.31;;;16.29
42119;BMP280;27783;42.782;23.274;2022-11-20T10:21:29;94844.34;;;16.22
42119;BMP280;27783;42.782;23.274;2022-11-20T10:29:17;94838.28;;;16.22
42119;BMP280;27783;42.782;23.274;2022-11-20T10:31:56;94842.09;;;16.42
42119;BMP280;27783;42.782;23.274;2022-11-20T10:34:57;94853.66;;;16.48
42119;BMP280;27783;42.782;23.274;2022-11-20T10:37:23;94848.28;;;16.39
42119;BMP280;27783;42.782;23.274;2022-11-20T10:42:55;94853.28;;;16.37
42119;BMP280;27783;42.782;23.274;2022-11-20T10:47:51;94838.81;;;16.38
42119;BMP280;27783;42.782;23.274;2022-11-20T10:50:19;94831.59;;;16.38
42119;BMP280;27783;42.782;23.274;2022-11-20T10:58:10;94845.31;;;16.16
42119;BMP280;27783;42.782;23.274;2022-11-20T11:00:38;94881.25;;;15.63
42119;BMP280;27783;42.782;23.274;2022-11-20T11:06:03;94876.47;;;14.46
42119;BMP280;27783;42.782;23.274;2022-11-20T11:08:36;94864.44;;;14.29
42119;BMP280;27783;42.782;23.274;2022-11-20T11:13:35;94828.63;;;14.37
42119;BMP280;27783;42.782;23.274;2022-11-20T11:16:02;94850.41;;;14.17
42119;BMP280;27783;42.782;23.274;2022-11-20T11:18:32;94853.81;;;14.29
42119;BMP280;27783;42.782;23.274;2022-11-20T11:21:03;94840.63;;;14.14
42119;BMP280;27783;42.782;23.274;2022-11-20T11:23:38;94836.50;;;14.13
42119;BMP280;27783;42.782;23.274;2022-11-20T11:26:06;94857.25;;;14.02
42119;BMP280;27783;42.782;23.274;2022-11-20T11:28:33;94853.28;;;13.94
42119;BMP280;27783;42.782;23.274;2022-11-20T11:30:58;94859.91;;;13.86
42119;BMP280;27783;42.782;23.274;2022-11-20T11:33:26;94867.84;;;13.86
42119;BMP280;27783;42.782;23.274;2022-11-20T11:35:54;94855.09;;;13.97
42119;BMP280;27783;42.782;23.274;2022-11-20T11:38:38;94864.16;;;13.84
42119;BMP280;27783;42.782;23.274;2022-11-20T11:41:05;94866.94;;;13.93
42119;BMP280;27783;42.782;23.274;2022-11-20T11:43:33;94880.63;;;13.76
42119;BMP280;27783;42.782;23.274;2022-11-20T11:46:31;94893.81;;;13.79
42119;BMP280;27783;42.782;23.274;2022-11-20T11:51:45;94888.41;;;13.83
42119;BMP280;27783;42.782;23.274;2022-11-20T11:54:16;94884.59;;;13.83
42119;BMP280;27783;42.782;23.274;2022-11-20T11:56:46;94880.47;;;13.83
42119;BMP280;27783;42.782;23.274;2022-11-20T11:59:23;94876.31;;;13.82
42119;BMP280;27783;42.782;23.274;2022-11-20T12:01:59;94880.88;;;13.81
42119;BMP280;27783;42.782;23.274;2022-11-20T12:07:40;94902.78;;;13.97
42119;BMP280;27783;42.782;23.274;2022-11-20T12:15:58;94897.78;;;14.15
42119;BMP280;27783;42.782;23.274;2022-11-20T12:18:24;94900.94;;;14.10
42119;BMP280;27783;42.782;23.274;2022-11-20T12:40:44;94861.47;;;14.27
42119;BMP280;27783;42.782;23.274;2022-11-20T12:43:28;94848.50;;;14.17
42119;BMP280;27783;42.782;23.274;2022-11-20T12:54:57;94850.28;;;13.77
42119;BMP280;27783;42.782;23.274;2022-11-20T12:57:33;94848.81;;;13.91
42119;BMP280;27783;42.782;23.274;2022-11-20T13:02:44;94832.38;;;13.84
42119;BMP280;27783;42.782;23.274;2022-11-20T13:08:29;94847.25;;;13.94
42119;BMP280;27783;42.782;23.274;2022-11-20T13:11:01;94843.53;;;13.91
42119;BMP280;27783;42.782;23.274;2022-11-20T13:13:43;94836.81;;;13.87
42119;BMP280;27783;42.782;23.274;2022-11-20T13:16:22;94840.53;;;13.89
42119;BMP280;27783;42.782;23.274;2022-11-20T13:18:49;94833.44;;;13.71
42119;BMP280;27783;42.782;23.274;2022-11-20T13:21:21;94849.31;;;13.71
42119;BMP280;27783;42.782;23.274;2022-11-20T13:23:48;94837.44;;;13.79
42119;BMP280;27783;42.782;23.274;2022-11-20T13:26:20;94843.19;;;13.74
42119;BMP280;27783;42.782;23.274;2022-11-20T13:29:02;94834.25;;;13.83
42119;BMP280;27783;42.782;23.274;2022-11-20T13:31:34;94833.25;;;13.78
42119;BMP280;27783;42.782;23.274;2022-11-20T13:34:04;94833.09;;;13.84
42119;BMP280;27783;42.782;23.274;2022-11-20T13:36:31;94823.91;;;13.89
42119;BMP280;27783;42.782;23.274;2022-11-20T13:38:57;94825.06;;;13.88
42119;BMP280;27783;42.782;23.274;2022-11-20T13:41:41;94820.47;;;14.04
42119;BMP280;27783;42.782;23.274;2022-11-20T13:44:13;94824.53;;;13.93
42119;BMP280;27783;42.782;23.274;2022-11-20T13:46:42;94818.53;;;13.92
42119;BMP280;27783;42.782;23.274;2022-11-20T13:49:15;94814.25;;;13.83
42119;BMP280;27783;42.782;23.274;2022-11-20T13:51:50;94811.91;;;13.84
42119;BMP280;27783;42.782;23.274;2022-11-20T13:54:26;94829.66;;;14.00
42119;BMP280;27783;42.782;23.274;2022-11-20T13:59:40;94815.34;;;13.97
42119;BMP280;27783;42.782;23.274;2022-11-20T14:02:14;94814.88;;;13.86
42119;BMP280;27783;42.782;23.274;2022-11-20T14:04:45;94812.75;;;13.82
42119;BMP280;27783;42.782;23.274;2022-11-20T14:07:11;94820.00;;;13.78
42119;BMP280;27783;42.782;23.274;2022-11-20T14:09:37;94828.97;;;13.83
42119;BMP280;27783;42.782;23.274;2022-11-20T14:12:03;94834.78;;;13.79
42119;BMP280;27783;42.782;23.274;2022-11-20T14:14:30;94827.00;;;13.56
42119;BMP280;27783;42.782;23.274;2022-11-20T14:17:06;94821.34;;;13.70
42119;BMP280;27783;42.782;23.274;2022-11-20T14:19:32;94821.59;;;13.75
42119;BMP280;27783;42.782;23.274;2022-11-20T14:22:23;94802.91;;;13.66
42119;BMP280;27783;42.782;23.274;2022-11-20T14:25:02;94808.94;;;13.67
42119;BMP280;27783;42.782;23.274;2022-11-20T14:27:47;94805.13;;;13.68
42119;BMP280;27783;42.782;23.274;2022-11-20T14:30:20;94818.66;;;13.58
42119;BMP280;27783;42.782;23.274;2022-11-20T14:32:47;94819.78;;;13.57
42119;BMP280;27783;42.782;23.274;2022-11-20T14:35:28;94824.19;;;13.48
42119;BMP280;27783;42.782;23.274;2022-11-20T14:37:56;94818.31;;;13.40
42119;BMP280;27783;42.782;23.274;2022-11-20T14:42:48;94827.63;;;13.33
42119;BMP280;27783;42.782;23.274;2022-11-20T14:45:15;94809.56;;;13.28
42119;BMP280;27783;42.782;23.274;2022-11-20T14:47:45;94806.09;;;13.31
42119;BMP280;27783;42.782;23.274;2022-11-20T14:50:23;94808.75;;;13.31
42119;BMP280;27783;42.782;23.274;2022-11-20T14:52:51;94806.53;;;13.29
42119;BMP280;27783;42.782;23.274;2022-11-20T14:55:53;94803.78;;;13.33
42119;BMP280;27783;42.782;23.274;2022-11-20T14:58:23;94811.41;;;13.46
42119;BMP280;27783;42.782;23.274;2022-11-20T15:01:04;94832.66;;;13.43
42119;BMP280;27783;42.782;23.274;2022-11-20T15:03:37;94826.63;;;13.42
42119;BMP280;27783;42.782;23.274;2022-11-20T15:06:04;94829.34;;;13.39
42119;BMP280;27783;42.782;23.274;2022-11-20T15:08:30;94828.28;;;13.36
42119;BMP280;27783;42.782;23.274;2022-11-20T15:10:56;94829.06;;;13.33
42119;BMP280;27783;42.782;23.274;2022-11-20T15:13:30;94848.34;;;13.34
42119;BMP280;27783;42.782;23.274;2022-11-20T15:15:59;94869.28;;;13.29
42119;BMP280;27783;42.782;23.274;2022-11-20T15:18:32;94875.84;;;13.40
42119;BMP280;27783;42.782;23.274;2022-11-20T15:21:02;94885.25;;;13.25
42119;BMP280;27783;42.782;23.274;2022-11-20T15:23:28;94875.50;;;13.22
42119;BMP280;27783;42.782;23.274;2022-11-20T15:25:55;94864.63;;;13.17
42119;BMP280;27783;42.782;23.274;2022-11-20T15:28:33;94886.06;;;13.22
42119;BMP280;27783;42.782;23.274;2022-11-20T15:30:59;94921.47;;;13.28
42119;BMP280;27783;42.782;23.274;2022-11-20T15:33:25;94915.94;;;13.23
42119;BMP280;27783;42.782;23.274;2022-11-20T15:35:50;94933.97;;;12.93